Time;durP1;ratioP1;P1;durP2;ratioP2;P2;SDS_P1;SDS_P2;PMS_P1;PMS_P2;Temp;Humidity;BMP_temperature;BMP_pressure;BME280_temperature;BME280_humidity;BME280_pressure;Samples;Min_cycle;Max_cycle;Signal;HPM_P1;HPM_P2
2021/10/20 00:00:17;;;;;;;5.13;2.97;;;14.70;91.50;;;;;;4971631;28;20189;-75
2021/10/20 00:02:42;;;;;;;5.87;3.27;;;14.80;91.50;;;;;;4971474;28;20422;-75
2021/10/20 00:05:09;;;;;;;4.47;3.03;;;14.80;91.10;;;;;;4973006;28;20424;-75
2021/10/20 00:07:34;;;;;;;4.10;3.13;;;14.80;91.00;;;;;;4970949;28;20177;-75
2021/10/20 00:10:00;;;;;;;4.27;2.47;;;14.80;91.00;;;;;;4974179;28;20809;-75
2021/10/20 00:12:26;;;;;;;3.03;2.53;;;14.80;90.80;;;;;;4973701;28;20271;-75
2021/10/20 00:14:51;;;;;;;3.67;2.70;;;14.80;90.60;;;;;;4975186;28;20687;-75
2021/10/20 00:17:17;;;;;;;4.00;2.87;;;14.80;90.50;;;;;;4975102;28;20634;-75
2021/10/20 00:19:43;;;;;;;5.20;2.97;;;14.80;90.40;;;;;;4974930;28;20197;-75
2021/10/20 00:22:08;;;;;;;3.50;2.90;;;14.90;90.20;;;;;;4973408;28;20420;-75
2021/10/20 00:24:35;;;;;;;5.13;3.53;;;14.90;90.00;;;;;;4973795;28;20176;-75
2021/10/20 00:27:00;;;;;;;4.97;3.40;;;14.90;89.80;;;;;;4973430;28;20176;-74
2021/10/20 00:29:26;;;;;;;3.80;2.87;;;14.90;89.10;;;;;;4973474;28;20420;-74
2021/10/20 00:31:52;;;;;;;4.50;2.97;;;14.90;88.90;;;;;;4972905;28;20240;-74
2021/10/20 00:34:17;;;;;;;4.20;2.73;;;14.90;89.00;;;;;;4974474;28;20184;-75
2021/10/20 00:36:43;;;;;;;4.00;2.70;;;14.90;88.60;;;;;;4974399;28;20598;-75
2021/10/20 00:39:09;;;;;;;4.70;3.40;;;14.90;88.40;;;;;;4974382;28;20280;-75
2021/10/20 00:41:34;;;;;;;3.73;2.83;;;14.90;88.50;;;;;;4974216;28;20424;-75
2021/10/20 00:44:00;;;;;;;5.80;3.53;;;14.90;88.30;;;;;;4974592;28;20204;-75
2021/10/20 00:46:30;;;;;;;4.23;3.67;;;14.90;88.40;;;;;;4974272;28;20172;-75
2021/10/20 00:48:57;;;;;;;6.80;3.10;;;14.80;88.60;;;;;;4974372;28;20161;-75
2021/10/20 00:51:25;;;;;;;4.80;3.40;;;14.80;88.90;;;;;;4973561;28;21000;-75
2021/10/20 00:53:59;;;;;;;3.87;3.17;;;14.80;89.20;;;;;;4974216;28;20418;-74
2021/10/20 00:56:29;;;;;;;4.20;3.60;;;14.70;89.60;;;;;;4974224;28;20459;-75
2021/10/20 00:59:08;;;;;;;4.63;3.40;;;14.60;90.10;;;;;;4973855;28;20755;-75
2021/10/20 01:01:34;;;;;;;4.67;3.40;;;14.50;90.50;;;;;;4973554;28;20589;-73
2021/10/20 01:03:59;;;;;;;6.07;3.30;;;14.40;90.80;;;;;;5026665;23;20573;-74
2021/10/20 01:06:25;;;;;;;7.37;3.30;;;14.30;91.00;;;;;;5013262;28;20426;-74
2021/10/20 01:08:50;;;;;;;5.40;3.60;;;14.30;91.30;;;;;;5016523;28;20172;-74
2021/10/20 01:11:17;;;;;;;4.20;3.30;;;14.20;91.50;;;;;;5015149;28;20203;-75
2021/10/20 01:13:42;;;;;;;5.33;3.87;;;14.10;91.60;;;;;;5013982;28;20288;-75
2021/10/20 01:16:09;;;;;;;6.50;4.50;;;14.10;92.00;;;;;;5012999;28;20498;-73
2021/10/20 01:18:35;;;;;;;8.97;4.80;;;14.00;92.10;;;;;;5012838;28;20584;-74
2021/10/20 01:21:01;;;;;;;4.73;4.20;;;14.00;92.30;;;;;;5012201;28;20410;-75
2021/10/20 01:23:28;;;;;;;8.70;4.80;;;14.00;92.50;;;;;;5012414;28;20206;-75
2021/10/20 01:25:54;;;;;;;4.63;3.40;;;14.00;92.60;;;;;;4999612;28;20426;-74
2021/10/20 01:28:20;;;;;;;5.27;3.70;;;14.00;92.70;;;;;;5013127;28;20948;-74
2021/10/20 01:30:46;;;;;;;5.67;4.13;;;13.90;92.80;;;;;;5017131;28;20513;-75
2021/10/20 01:33:11;;;;;;;6.03;3.97;;;13.90;92.90;;;;;;5012446;28;20195;-75
2021/10/20 01:35:37;;;;;;;6.13;4.47;;;13.90;93.00;;;;;;5013175;28;20195;-74
2021/10/20 01:38:03;;;;;;;10.20;4.00;;;13.80;93.10;;;;;;5012423;28;20249;-74
2021/10/20 01:40:29;;;;;;;6.00;3.80;;;13.80;93.60;;;;;;5013680;28;20461;-73
2021/10/20 01:42:55;;;;;;;6.10;3.63;;;13.80;93.40;;;;;;5014849;28;20433;-73
2021/10/20 01:45:21;;;;;;;7.00;4.20;;;13.70;93.50;;;;;;5012572;28;20175;-74
2021/10/20 01:47:47;;;;;;;5.23;3.73;;;13.70;93.60;;;;;;5012673;28;20276;-73
2021/10/20 01:50:14;;;;;;;8.13;4.10;;;13.70;93.70;;;;;;5031712;28;20406;-75
2021/10/20 01:52:41;;;;;;;5.03;3.97;;;13.70;93.90;;;;;;5036165;28;20239;-74
2021/10/20 01:55:08;;;;;;;4.43;3.50;;;13.60;94.00;;;;;;5036546;28;20505;-74
2021/10/20 01:57:34;;;;;;;8.23;4.30;;;13.60;94.20;;;;;;5017100;28;20469;-74
2021/10/20 02:00:00;;;;;;;7.57;4.23;;;13.60;94.40;;;;;;4994855;28;20410;-74
2021/10/20 02:02:25;;;;;;;11.43;4.73;;;13.60;94.50;;;;;;5011792;28;20181;-75
2021/10/20 02:04:51;;;;;;;4.50;3.80;;;13.50;94.60;;;;;;5011680;28;20567;-74
2021/10/20 02:07:17;;;;;;;3.57;3.10;;;13.50;94.70;;;;;;5012160;28;20246;-75
2021/10/20 02:09:44;;;;;;;5.47;4.23;;;13.50;94.70;;;;;;5012152;28;20167;-75
2021/10/20 02:12:10;;;;;;;5.30;4.13;;;13.50;94.80;;;;;;5010265;28;20418;-75
2021/10/20 02:14:36;;;;;;;8.20;4.73;;;13.40;94.80;;;;;;5009957;28;20418;-75
2021/10/20 02:17:03;;;;;;;5.97;4.50;;;13.40;94.90;;;;;;5010279;28;20979;-75
2021/10/20 02:19:28;;;;;;;7.17;4.10;;;13.40;95.00;;;;;;5012421;28;20457;-74
2021/10/20 02:21:56;;;;;;;7.70;4.67;;;13.30;94.90;;;;;;4995190;28;20807;-75
2021/10/20 02:24:22;;;;;;;5.77;4.27;;;13.30;95.00;;;;;;5018001;28;20191;-75
2021/10/20 02:26:47;;;;;;;6.77;3.80;;;13.30;95.10;;;;;;5014293;28;20424;-75
2021/10/20 02:29:13;;;;;;;5.83;3.90;;;13.20;95.20;;;;;;5011404;28;20182;-75
2021/10/20 02:31:45;;;;;;;6.93;3.53;;;13.20;95.20;;;;;;5008811;28;20171;-75
2021/10/20 02:34:12;;;;;;;4.20;3.53;;;13.30;95.10;;;;;;5009839;28;20194;-75
2021/10/20 02:36:38;;;;;;;5.37;3.50;;;13.30;95.10;;;;;;5010963;28;20528;-75
2021/10/20 02:39:03;;;;;;;4.83;3.47;;;13.30;94.90;;;;;;5010932;28;20521;-75
2021/10/20 02:41:29;;;;;;;5.33;3.63;;;13.40;94.60;;;;;;5013645;28;20171;-74
2021/10/20 02:43:55;;;;;;;6.73;3.60;;;13.50;94.30;;;;;;5010924;28;20197;-74
2021/10/20 02:46:20;;;;;;;5.50;3.67;;;13.60;93.90;;;;;;5011504;28;20179;-74
2021/10/20 02:48:46;;;;;;;5.30;3.30;;;13.70;93.50;;;;;;5011181;28;20245;-73
2021/10/20 02:51:12;;;;;;;4.00;3.07;;;13.80;93.10;;;;;;5009885;28;20167;-74
2021/10/20 02:53:37;;;;;;;4.50;3.63;;;13.90;92.80;;;;;;5011335;28;20183;-74
2021/10/20 02:56:03;;;;;;;4.10;2.77;;;13.90;92.40;;;;;;5010507;28;20199;-74
2021/10/20 02:58:29;;;;;;;5.57;3.60;;;14.00;92.30;;;;;;5013924;28;20171;-74
2021/10/20 03:00:55;;;;;;;7.10;3.87;;;14.00;92.00;;;;;;5010620;28;20198;-74
2021/10/20 03:03:20;;;;;;;3.87;3.20;;;14.10;91.80;;;;;;5010987;28;20195;-74
2021/10/20 03:05:46;;;;;;;5.30;3.40;;;14.10;91.60;;;;;;5009907;28;20238;-73
2021/10/20 03:08:12;;;;;;;5.10;3.60;;;14.10;91.20;;;;;;5010021;28;20209;-73
2021/10/20 03:10:39;;;;;;;5.10;2.90;;;14.20;91.10;;;;;;5012131;28;20595;-74
2021/10/20 03:13:04;;;;;;;4.33;3.47;;;14.20;90.90;;;;;;4994617;28;20734;-75
2021/10/20 03:15:30;;;;;;;6.40;3.37;;;14.20;90.80;;;;;;5010891;28;20437;-75
2021/10/20 03:17:56;;;;;;;4.03;2.90;;;14.20;90.60;;;;;;5019643;28;20612;-75
2021/10/20 03:20:21;;;;;;;5.80;3.27;;;14.20;90.50;;;;;;5009505;28;20172;-75
2021/10/20 03:22:47;;;;;;;5.67;3.37;;;14.20;90.40;;;;;;5010366;28;20307;-74
2021/10/20 03:25:13;;;;;;;4.03;2.83;;;14.20;90.30;;;;;;5010653;28;20545;-74
2021/10/20 03:27:45;;;;;;;6.60;3.27;;;14.20;90.20;;;;;;5010624;28;20171;-75
2021/10/20 03:30:12;;;;;;;3.83;2.80;;;14.20;90.10;;;;;;5009135;28;20445;-75
2021/10/20 03:32:38;;;;;;;6.73;3.40;;;14.30;89.80;;;;;;5010512;28;20524;-75
2021/10/20 03:35:04;;;;;;;3.07;2.60;;;14.30;89.20;;;;;;5010376;28;20442;-75
2021/10/20 03:37:30;;;;;;;5.40;3.23;;;14.40;88.80;;;;;;5010895;28;20604;-74
2021/10/20 03:39:56;;;;;;;4.10;2.93;;;14.40;88.40;;;;;;5010265;28;20874;-74
2021/10/20 03:42:22;;;;;;;5.93;3.20;;;14.40;88.20;;;;;;5010336;28;20401;-73
2021/10/20 03:44:47;;;;;;;4.07;3.03;;;14.40;88.20;;;;;;5013336;28;20159;-73
2021/10/20 03:47:13;;;;;;;8.27;3.80;;;14.40;87.70;;;;;;5012944;28;20203;-74
2021/10/20 03:49:38;;;;;;;3.93;3.03;;;14.50;87.30;;;;;;5013983;28;20175;-74
2021/10/20 03:52:04;;;;;;;4.57;2.83;;;14.50;86.80;;;;;;5012833;28;20329;-74
2021/10/20 03:54:30;;;;;;;7.13;3.67;;;14.50;86.70;;;;;;5013841;28;20218;-73
2021/10/20 03:56:55;;;;;;;4.53;3.40;;;14.60;86.80;;;;;;5013924;28;20361;-74
2021/10/20 03:59:21;;;;;;;6.70;3.70;;;14.50;87.50;;;;;;5012976;28;20178;-74
2021/10/20 04:01:47;;;;;;;5.10;3.23;;;14.50;86.80;;;;;;5013916;28;20195;-73
2021/10/20 04:04:12;;;;;;;5.03;3.20;;;14.50;86.70;;;;;;5012833;28;20203;-72
2021/10/20 04:06:38;;;;;;;5.80;3.73;;;14.50;86.90;;;;;;5014559;28;20246;-74
2021/10/20 04:09:05;;;;;;;5.77;3.40;;;14.50;87.00;;;;;;5014180;28;20171;-74
2021/10/20 04:11:30;;;;;;;4.37;3.27;;;14.40;87.10;;;;;;5014128;28;20171;-74
2021/10/20 04:13:56;;;;;;;6.57;3.77;;;14.40;87.90;;;;;;5014226;28;20435;-74
2021/10/20 04:16:22;;;;;;;4.30;2.87;;;14.40;87.10;;;;;;5013507;28;20681;-74
2021/10/20 04:18:47;;;;;;;4.43;3.20;;;14.50;87.00;;;;;;5012695;28;20172;-75
2021/10/20 04:21:13;;;;;;;4.40;2.97;;;14.50;87.00;;;;;;5012144;28;20614;-75
2021/10/20 04:23:39;;;;;;;4.50;3.13;;;14.50;86.80;;;;;;5013430;28;20241;-74
2021/10/20 04:26:04;;;;;;;8.43;3.00;;;14.50;86.60;;;;;;5012403;28;20663;-74
2021/10/20 04:28:30;;;;;;;6.17;3.77;;;14.50;86.30;;;;;;5012224;28;20179;-73
2021/10/20 04:30:56;;;;;;;4.57;3.27;;;14.50;86.00;;;;;;5012892;28;20163;-74
2021/10/20 04:33:21;;;;;;;5.33;3.40;;;14.60;85.80;;;;;;5012181;28;20711;-74
2021/10/20 04:35:47;;;;;;;4.27;3.70;;;14.60;85.60;;;;;;5012840;28;20680;-74
2021/10/20 04:38:13;;;;;;;7.67;5.93;;;14.60;85.60;;;;;;5011706;28;20179;-75
2021/10/20 04:40:39;;;;;;;5.67;4.27;;;14.60;85.50;;;;;;5011956;28;20406;-74
2021/10/20 04:43:05;;;;;;;6.50;3.57;;;14.60;85.40;;;;;;5013343;28;20210;-74
2021/10/20 04:45:31;;;;;;;5.87;3.47;;;14.60;85.60;;;;;;4969136;28;20263;-74
2021/10/20 04:47:56;;;;;;;5.53;3.70;;;14.60;85.60;;;;;;5005833;28;20521;-74
2021/10/20 04:50:22;;;;;;;6.43;3.30;;;14.70;85.60;;;;;;5013456;28;20263;-74
2021/10/20 04:52:47;;;;;;;4.77;3.03;;;14.70;85.30;;;;;;5011385;28;20216;-74
2021/10/20 04:55:13;;;;;;;10.83;4.20;;;14.70;85.00;;;;;;5011039;28;20279;-74
2021/10/20 04:57:39;;;;;;;7.70;3.87;;;14.80;85.00;;;;;;5011658;28;20167;-74
2021/10/20 05:00:06;;;;;;;7.93;3.50;;;14.80;84.70;;;;;;4999948;28;20427;-73
2021/10/20 05:02:35;;;;;;;6.13;3.30;;;14.80;84.60;;;;;;5010696;28;20226;-74
2021/10/20 05:05:03;;;;;;;7.73;4.20;;;14.80;84.40;;;;;;5012982;28;20433;-74
2021/10/20 05:07:29;;;;;;;7.57;3.70;;;14.90;84.50;;;;;;5013306;28;20577;-74
2021/10/20 05:09:54;;;;;;;5.67;3.50;;;14.90;84.60;;;;;;5011985;28;20509;-74
2021/10/20 05:12:20;;;;;;;8.00;4.33;;;14.90;84.30;;;;;;5011375;28;20164;-75
2021/10/20 05:14:46;;;;;;;5.70;3.97;;;14.90;84.50;;;;;;5012989;28;20194;-75
2021/10/20 05:17:11;;;;;;;4.30;3.40;;;14.90;84.40;;;;;;5012713;28;20279;-75
2021/10/20 05:19:37;;;;;;;5.90;3.90;;;14.90;84.20;;;;;;5012783;28;20182;-75
2021/10/20 05:22:03;;;;;;;8.30;3.63;;;14.90;84.40;;;;;;5010066;28;20168;-75
2021/10/20 05:24:28;;;;;;;6.00;3.23;;;14.90;84.20;;;;;;5010853;28;20196;-75
2021/10/20 05:26:54;;;;;;;4.40;3.53;;;15.00;84.20;;;;;;5004695;28;20222;-74
2021/10/20 05:29:21;;;;;;;5.67;3.80;;;14.90;84.20;;;;;;5015165;28;20223;-75
2021/10/20 05:31:47;;;;;;;6.40;3.50;;;14.90;84.40;;;;;;4992806;28;20177;-75
2021/10/20 05:34:13;;;;;;;5.73;4.00;;;14.90;84.40;;;;;;5011738;28;21070;-75
2021/10/20 05:36:38;;;;;;;7.87;4.10;;;14.90;84.40;;;;;;5011107;28;20199;-75
2021/10/20 05:39:05;;;;;;;6.57;4.20;;;14.90;84.20;;;;;;5011090;28;20179;-74
2021/10/20 05:41:31;;;;;;;6.67;5.57;;;14.90;84.30;;;;;;4994694;28;20167;-75
2021/10/20 05:43:57;;;;;;;4.27;3.47;;;14.90;84.40;;;;;;5011793;28;20445;-75
2021/10/20 05:46:23;;;;;;;4.70;3.50;;;14.90;84.60;;;;;;5012078;28;20528;-74
2021/10/20 05:48:48;;;;;;;6.23;4.23;;;14.90;84.60;;;;;;5012779;28;20182;-74
2021/10/20 05:51:14;;;;;;;4.10;3.60;;;14.90;84.80;;;;;;5011623;28;20176;-74
2021/10/20 05:53:39;;;;;;;4.17;3.50;;;14.90;84.80;;;;;;5012185;28;20191;-74
2021/10/20 05:56:06;;;;;;;4.50;3.63;;;14.90;84.80;;;;;;5011582;28;20286;-73
2021/10/20 05:58:32;;;;;;;6.83;3.70;;;14.90;84.80;;;;;;5014071;28;20163;-75
2021/10/20 06:00:57;;;;;;;13.57;3.93;;;14.90;84.70;;;;;;5014289;28;20416;-72
2021/10/20 06:03:23;;;;;;;5.33;3.67;;;14.90;84.80;;;;;;5016053;28;20199;-72
2021/10/20 06:05:49;;;;;;;4.30;3.53;;;14.90;84.40;;;;;;5017195;28;20702;-73
2021/10/20 06:08:14;;;;;;;8.73;4.60;;;14.90;84.30;;;;;;5017659;28;20201;-75
2021/10/20 06:10:40;;;;;;;7.33;3.70;;;15.00;84.10;;;;;;5016717;28;20576;-75
2021/10/20 06:13:06;;;;;;;6.57;4.57;;;15.00;84.00;;;;;;5028987;28;20225;-73
2021/10/20 06:15:31;;;;;;;5.70;3.90;;;15.00;83.90;;;;;;5034342;28;20568;-73
2021/10/20 06:17:57;;;;;;;7.70;3.87;;;15.00;83.80;;;;;;5031873;28;20170;-73
2021/10/20 06:20:23;;;;;;;9.03;4.20;;;15.00;83.80;;;;;;5031344;28;20582;-73
2021/10/20 06:22:48;;;;;;;6.63;4.63;;;15.00;83.70;;;;;;5030306;28;20190;-73
2021/10/20 06:25:14;;;;;;;7.23;3.97;;;15.10;83.80;;;;;;5032023;28;20690;-73
2021/10/20 06:27:41;;;;;;;4.53;4.07;;;15.10;83.70;;;;;;5031600;28;20281;-74
2021/10/20 06:30:07;;;;;;;5.23;4.07;;;15.10;83.80;;;;;;5042496;28;20242;-73
2021/10/20 06:32:33;;;;;;;7.60;4.90;;;15.10;83.90;;;;;;5046094;28;20422;-73
2021/10/20 06:34:59;;;;;;;5.33;4.00;;;15.10;83.90;;;;;;5037466;28;20483;-73
2021/10/20 06:37:26;;;;;;;8.33;4.10;;;15.10;83.70;;;;;;5032837;28;20196;-73
2021/10/20 06:39:52;;;;;;;8.00;3.63;;;15.10;83.70;;;;;;5018924;28;20440;-74
2021/10/20 06:42:18;;;;;;;6.80;4.20;;;15.10;83.50;;;;;;5013116;28;20418;-73
2021/10/20 06:44:43;;;;;;;4.70;3.77;;;15.20;83.30;;;;;;5013716;28;20164;-73
2021/10/20 06:47:09;;;;;;;7.50;4.87;;;15.20;83.00;;;;;;5013552;28;20263;-73
2021/10/20 06:49:35;;;;;;;6.43;4.40;;;15.20;82.80;;;;;;5015202;28;20191;-73
2021/10/20 06:52:00;;;;;;;7.10;4.47;;;15.20;82.80;;;;;;5018072;28;20219;-73
2021/10/20 06:54:27;;;;;;;7.90;3.43;;;15.20;82.90;;;;;;5018771;28;20202;-73
2021/10/20 06:56:54;;;;;;;7.43;4.07;;;15.20;82.80;;;;;;5013363;28;20199;-73
2021/10/20 06:59:20;;;;;;;11.20;6.07;;;15.20;82.80;;;;;;5015044;28;20405;-73
2021/10/20 07:01:46;;;;;;;5.63;3.93;;;15.20;82.70;;;;;;5013293;28;20818;-73
2021/10/20 07:04:15;;;;;;;6.20;4.50;;;15.20;82.90;;;;;;5037255;22;20494;-87
2021/10/20 07:06:47;;;;;;;6.93;4.60;;;15.30;83.00;;;;;;5025678;28;20195;-85
2021/10/20 07:09:18;;;;;;;8.17;4.63;;;15.30;82.90;;;;;;5012656;28;20442;-87
2021/10/20 07:11:44;;;;;;;6.87;4.23;;;15.40;82.80;;;;;;5027284;28;20418;-87
2021/10/20 07:14:10;;;;;;;4.80;4.03;;;15.50;82.50;;;;;;5026192;28;20425;-87
2021/10/20 07:16:40;;;;;;;12.43;4.33;;;15.50;82.20;;;;;;5025530;28;20525;-86
2021/10/20 07:19:07;;;;;;;4.83;4.00;;;15.60;82.20;;;;;;5038726;28;20404;-87
2021/10/20 07:21:34;;;;;;;10.43;4.63;;;15.60;82.10;;;;;;5023018;28;20455;-86
2021/10/20 07:24:04;;;;;;;6.87;4.00;;;15.60;82.40;;;;;;5032346;28;20440;-89
2021/10/20 07:26:30;;;;;;;6.57;4.67;;;15.60;82.30;;;;;;5024717;28;20458;-86
2021/10/20 07:28:56;;;;;;;6.50;4.53;;;15.60;82.30;;;;;;5023581;28;20413;-88
2021/10/20 07:31:22;;;;;;;4.87;3.87;;;15.60;82.30;;;;;;5023035;28;20414;-87
2021/10/20 07:33:47;;;;;;;6.50;4.77;;;15.60;82.40;;;;;;5022736;28;20451;-87
2021/10/20 07:36:13;;;;;;;7.47;5.17;;;15.60;82.40;;;;;;5022807;28;20457;-87
2021/10/20 07:38:39;;;;;;;7.20;4.60;;;15.70;82.50;;;;;;5022770;28;20190;-87
2021/10/20 07:41:05;;;;;;;5.20;4.30;;;15.70;82.50;;;;;;5024023;28;20200;-87
2021/10/20 07:43:33;;;;;;;6.83;4.67;;;15.70;82.40;;;;;;5025152;28;20163;-86
2021/10/20 07:46:00;;;;;;;8.67;4.60;;;15.80;82.80;;;;;;5029622;28;20507;-86
2021/10/20 07:48:25;;;;;;;7.67;4.57;;;15.80;82.50;;;;;;5011589;28;20472;-87
2021/10/20 07:51:37;;;;;;;6.70;4.80;;;15.90;82.50;;;;;;5033960;28;20418;-86
2021/10/20 07:54:03;;;;;;;6.20;4.80;;;15.90;82.20;;;;;;4988725;28;20745;-86
2021/10/20 07:56:33;;;;;;;7.50;4.17;;;16.00;82.10;;;;;;5028299;28;20453;-86
2021/10/20 07:59:00;;;;;;;6.20;4.40;;;16.00;82.90;;;;;;5026411;28;20443;-87
2021/10/20 08:01:26;;;;;;;5.67;4.30;;;16.00;81.90;;;;;;5027719;28;20756;-88
2021/10/20 08:03:55;;;;;;;4.37;3.40;;;16.10;81.90;;;;;;5012676;28;20435;-87
2021/10/20 08:06:24;;;;;;;6.80;4.90;;;16.10;81.60;;;;;;5004671;28;20729;-87
2021/10/20 08:08:50;;;;;;;7.00;4.60;;;16.10;81.50;;;;;;4990845;28;20414;-86
2021/10/20 08:11:15;;;;;;;5.87;4.00;;;16.20;81.40;;;;;;5007076;28;20492;-87
2021/10/20 08:13:41;;;;;;;7.40;4.53;;;16.20;81.10;;;;;;5011318;28;20174;-86
2021/10/20 08:16:07;;;;;;;8.10;5.73;;;16.20;81.00;;;;;;5016428;28;20211;-88
2021/10/20 08:18:33;;;;;;;9.30;5.50;;;16.30;80.90;;;;;;5014832;28;20178;-87
2021/10/20 08:20:59;;;;;;;5.63;4.07;;;16.30;80.60;;;;;;5014742;28;20914;-86
2021/10/20 08:23:26;;;;;;;12.43;4.40;;;16.20;80.40;;;;;;5013629;28;20469;-86
2021/10/20 08:25:53;;;;;;;6.00;3.60;;;16.20;80.50;;;;;;4999030;28;20423;-86
2021/10/20 08:28:19;;;;;;;5.13;3.93;;;16.20;80.70;;;;;;4999194;28;20415;-86
2021/10/20 08:30:50;;;;;;;7.40;5.10;;;16.20;80.80;;;;;;5013596;28;20423;-86
2021/10/20 08:33:16;;;;;;;4.80;3.70;;;16.10;80.90;;;;;;5013755;28;20564;-87
2021/10/20 08:35:42;;;;;;;8.70;5.00;;;16.10;81.20;;;;;;4997649;28;20496;-87
2021/10/20 08:38:11;;;;;;;7.23;5.40;;;16.10;81.20;;;;;;5013072;28;20430;-87
2021/10/20 08:40:49;;;;;;;9.53;5.03;;;16.10;81.20;;;;;;5002422;28;20426;-87
2021/10/20 08:43:17;;;;;;;10.57;5.33;;;16.10;81.20;;;;;;4986806;28;20179;-85
2021/10/20 08:45:47;;;;;;;6.87;4.40;;;16.10;81.20;;;;;;5002012;28;20481;-88
2021/10/20 08:48:18;;;;;;;4.10;3.47;;;16.10;81.10;;;;;;5017686;23;20631;-78
2021/10/20 08:50:47;;;;;;;5.20;4.10;;;16.20;80.80;;;;;;4997320;28;20446;-79
2021/10/20 08:53:14;;;;;;;6.87;4.37;;;16.20;81.10;;;;;;5007141;28;20442;-78
2021/10/20 08:55:39;;;;;;;8.07;3.60;;;16.20;80.00;;;;;;4994731;28;20524;-78
2021/10/20 08:58:05;;;;;;;4.40;3.60;;;16.20;80.10;;;;;;4995279;28;20411;-78
2021/10/20 09:00:34;;;;;;;4.93;4.17;;;16.10;80.40;;;;;;4995728;28;20640;-78
2021/10/20 09:02:59;;;;;;;4.73;3.73;;;16.10;80.90;;;;;;4994606;28;20180;-81
2021/10/20 09:05:27;;;;;;;9.00;3.70;;;16.00;81.10;;;;;;4993991;28;20434;-78
2021/10/20 09:07:54;;;;;;;5.27;3.43;;;16.00;81.30;;;;;;4997036;28;20325;-77
2021/10/20 09:10:22;;;;;;;9.07;5.20;;;16.10;81.30;;;;;;4995857;28;20422;-78
2021/10/20 09:12:48;;;;;;;7.27;4.43;;;16.10;81.20;;;;;;4993888;28;20500;-79
2021/10/20 09:15:19;;;;;;;10.90;5.30;;;16.20;81.30;;;;;;4978177;28;20505;-78
2021/10/20 09:17:47;;;;;;;6.50;4.93;;;16.30;81.20;;;;;;4994687;28;20179;-79
2021/10/20 09:20:25;;;;;;;4.10;3.60;;;16.40;81.00;;;;;;4995409;28;20890;-79
2021/10/20 09:23:05;;;;;;;8.03;4.07;;;16.50;80.30;;;;;;4995729;28;20425;-78
2021/10/20 09:25:39;;;;;;;8.93;5.97;;;16.50;79.70;;;;;;4996580;28;20414;-79
2021/10/20 09:28:08;;;;;;;9.53;3.70;;;16.60;79.10;;;;;;4994672;28;20406;-78
2021/10/20 09:30:39;;;;;;;5.73;4.27;;;16.60;78.70;;;;;;4996018;28;20435;-78
2021/10/20 09:33:07;;;;;;;5.00;4.07;;;16.70;78.80;;;;;;4980094;28;20450;-79
2021/10/20 09:35:36;;;;;;;6.37;4.60;;;16.90;78.40;;;;;;4994763;28;20820;-78
2021/10/20 09:38:03;;;;;;;6.53;4.23;;;17.00;77.80;;;;;;4994652;28;20453;-76
2021/10/20 09:40:38;;;;;;;6.70;5.90;;;17.00;77.10;;;;;;4993969;28;20419;-78
2021/10/20 09:43:05;;;;;;;7.40;4.97;;;16.90;77.50;;;;;;4994311;28;20427;-77
2021/10/20 09:45:39;;;;;;;6.20;4.40;;;16.90;77.30;;;;;;4998518;28;20435;-77
2021/10/20 09:48:13;;;;;;;5.80;5.30;;;16.90;77.20;;;;;;4996520;28;20783;-79
2021/10/20 09:50:40;;;;;;;6.17;4.57;;;17.00;76.80;;;;;;4992411;28;20441;-77
2021/10/20 09:53:06;;;;;;;13.10;5.60;;;17.10;76.60;;;;;;4991423;28;20450;-77
2021/10/20 09:55:32;;;;;;;6.20;4.77;;;17.30;76.60;;;;;;4991760;28;20501;-78
2021/10/20 09:58:02;;;;;;;6.03;4.50;;;17.40;76.20;;;;;;4977160;28;20171;-78
2021/10/20 10:00:29;;;;;;;5.83;5.00;;;17.60;75.30;;;;;;4992534;28;20172;-80
2021/10/20 10:02:59;;;;;;;7.37;4.40;;;17.70;74.70;;;;;;4996539;28;20809;-78
2021/10/20 10:05:27;;;;;;;6.20;4.97;;;17.80;73.10;;;;;;4977242;28;20936;-79
2021/10/20 10:07:53;;;;;;;9.40;4.97;;;17.80;73.30;;;;;;4995804;28;20410;-77
2021/10/20 10:10:19;;;;;;;6.03;5.13;;;17.80;73.30;;;;;;4992970;28;20422;-77
2021/10/20 10:12:46;;;;;;;5.80;5.20;;;17.70;73.70;;;;;;4995247;28;20443;-76
2021/10/20 10:15:15;;;;;;;12.00;7.00;;;17.60;74.00;;;;;;4980981;28;20180;-77
2021/10/20 10:17:42;;;;;;;6.67;4.90;;;17.50;74.50;;;;;;4980679;28;20473;-78
2021/10/20 10:20:11;;;;;;;10.43;6.37;;;17.50;75.00;;;;;;4995380;28;20411;-78
2021/10/20 10:22:54;;;;;;;17.50;15.47;;;17.40;75.30;;;;;;4976960;28;20446;-78
2021/10/20 10:25:29;;;;;;;9.10;5.80;;;17.40;75.80;;;;;;4995169;28;20927;-78
2021/10/20 10:28:17;;;;;;;13.73;6.73;;;17.30;76.20;;;;;;4980357;28;20419;-76
2021/10/20 10:30:49;;;;;;;16.40;10.70;;;17.20;76.70;;;;;;4998432;28;20437;-77
2021/10/20 10:33:20;;;;;;;7.60;5.07;;;17.20;77.20;;;;;;4999600;28;20534;-77
2021/10/20 10:36:13;;;;;;;8.47;6.43;;;17.10;78.10;;;;;;4998969;28;20446;-78
2021/10/20 10:38:39;;;;;;;8.40;5.47;;;17.10;79.40;;;;;;4991793;28;20427;-77
2021/10/20 10:41:26;;;;;;;8.80;6.13;;;17.00;80.00;;;;;;4993097;28;20407;-78
2021/10/20 10:44:13;;;;;;;8.17;5.53;;;17.00;81.20;;;;;;4993911;28;20195;-79
2021/10/20 10:46:57;;;;;;;8.13;5.30;;;17.10;81.00;;;;;;4993414;28;20423;-78
2021/10/20 10:49:43;;;;;;;7.53;5.73;;;17.10;80.90;;;;;;4994246;28;20804;-78
2021/10/20 10:52:32;;;;;;;6.17;5.00;;;17.10;81.10;;;;;;4995174;28;20411;-78
2021/10/20 10:55:24;;;;;;;6.80;4.40;;;17.10;81.30;;;;;;4980209;28;20716;-78
2021/10/20 10:57:58;;;;;;;9.77;7.27;;;17.10;81.10;;;;;;4992881;28;20430;-78
2021/10/20 11:00:48;;;;;;;9.10;6.70;;;17.10;80.90;;;;;;4997706;28;20407;-77
2021/10/20 11:03:21;;;;;;;7.37;5.90;;;17.20;81.10;;;;;;4989059;28;20458;-79
2021/10/20 11:05:58;;;;;;;7.23;5.00;;;17.20;81.00;;;;;;4994657;28;20836;-79
2021/10/20 11:08:26;;;;;;;15.00;5.77;;;17.30;80.80;;;;;;4978272;28;20442;-79
2021/10/20 11:10:52;;;;;;;8.20;5.67;;;17.20;80.80;;;;;;4993295;28;20426;-79
2021/10/20 11:13:18;;;;;;;6.40;4.83;;;17.30;81.10;;;;;;4992062;28;20454;-78
2021/10/20 11:15:46;;;;;;;10.40;5.77;;;17.30;81.60;;;;;;4995683;28;20472;-78
2021/10/20 11:18:12;;;;;;;8.53;6.07;;;17.30;82.50;;;;;;4994030;28;20415;-78
2021/10/20 11:20:42;;;;;;;7.50;5.47;;;17.30;83.30;;;;;;4976419;28;20411;-78
2021/10/20 11:23:12;;;;;;;6.37;5.30;;;17.30;85.30;;;;;;4994299;28;20507;-79
2021/10/20 11:25:40;;;;;;;8.63;6.50;;;17.20;85.90;;;;;;4992602;28;20422;-78
2021/10/20 11:28:07;;;;;;;8.40;6.37;;;17.20;87.00;;;;;;4993732;28;20435;-79
2021/10/20 11:30:38;;;;;;;12.03;6.87;;;17.10;87.50;;;;;;4992376;28;20425;-78
2021/10/20 11:33:19;;;;;;;10.20;7.00;;;17.10;88.80;;;;;;4994646;28;20798;-79
2021/10/20 11:35:45;;;;;;;7.57;6.13;;;17.00;89.50;;;;;;4993344;28;20860;-78
2021/10/20 11:38:17;;;;;;;9.67;6.70;;;17.00;89.90;;;;;;4976283;28;20778;-79
2021/10/20 11:40:52;;;;;;;10.17;6.93;;;16.90;90.20;;;;;;4996795;28;20415;-78
2021/10/20 11:43:35;;;;;;;8.97;6.57;;;16.90;90.30;;;;;;4979659;28;20542;-79
2021/10/20 11:46:01;;;;;;;14.10;6.43;;;16.90;90.40;;;;;;4993817;28;20419;-78
2021/10/20 11:48:27;;;;;;;11.33;6.10;;;16.90;90.60;;;;;;4996051;28;20434;-78
2021/10/20 11:51:12;;;;;;;11.70;5.97;;;17.00;90.50;;;;;;4994886;28;20418;-78
2021/10/20 11:53:38;;;;;;;9.57;5.87;;;17.00;90.40;;;;;;5000150;28;20202;-77
2021/10/20 11:56:04;;;;;;;12.47;6.30;;;17.10;90.40;;;;;;4976724;28;20458;-78
2021/10/20 11:58:32;;;;;;;9.37;6.20;;;17.20;90.20;;;;;;4993695;28;20186;-78
2021/10/20 12:00:59;;;;;;;7.33;5.60;;;17.40;89.40;;;;;;4993494;28;20418;-78
2021/10/20 12:03:39;;;;;;;6.33;4.80;;;17.50;88.60;;;;;;4990662;28;20431;-79
2021/10/20 12:06:08;;;;;;;15.13;6.13;;;17.60;87.00;;;;;;4995503;28;20419;-78
2021/10/20 12:08:36;;;;;;;14.13;8.90;;;17.80;87.20;;;;;;4994524;28;20711;-78
2021/10/20 12:11:02;;;;;;;16.13;5.70;;;18.00;86.20;;;;;;5015633;28;20433;-78
2021/10/20 12:13:28;;;;;;;9.97;7.13;;;18.20;84.60;;;;;;5016305;28;20485;-79
2021/10/20 12:15:56;;;;;;;10.17;6.60;;;18.30;84.30;;;;;;4995785;28;20466;-78
2021/10/20 12:18:25;;;;;;;6.57;4.77;;;18.30;83.80;;;;;;5001254;28;20418;-77
2021/10/20 12:20:55;;;;;;;10.37;6.50;;;18.40;82.30;;;;;;4999095;28;20413;-78
2021/10/20 12:23:20;;;;;;;6.73;5.00;;;18.30;82.80;;;;;;5015629;28;20421;-77
2021/10/20 12:25:52;;;;;;;5.30;4.27;;;18.30;83.00;;;;;;5015608;28;20505;-78
2021/10/20 12:28:17;;;;;;;11.60;6.63;;;18.30;83.30;;;;;;5015573;28;20179;-78
2021/10/20 12:30:43;;;;;;;9.67;7.00;;;18.30;82.60;;;;;;5014310;28;20496;-78
2021/10/20 12:33:12;;;;;;;7.03;5.20;;;18.40;82.70;;;;;;4997728;28;20349;-77
2021/10/20 12:35:45;;;;;;;24.00;12.10;;;18.60;82.40;;;;;;4997767;28;20222;-77
2021/10/20 12:38:13;;;;;;;8.20;5.73;;;18.70;82.30;;;;;;5013841;28;20426;-77
2021/10/20 12:40:39;;;;;;;6.00;5.40;;;18.80;81.10;;;;;;5013981;28;20934;-77
2021/10/20 12:43:09;;;;;;;5.80;4.70;;;18.90;80.90;;;;;;5013032;28;20453;-79
2021/10/20 12:45:36;;;;;;;9.93;5.90;;;18.90;80.40;;;;;;5007702;28;20934;-78
2021/10/20 12:48:07;;;;;;;9.80;6.93;;;18.90;80.70;;;;;;5023612;28;20918;-79